Time;durP1;ratioP1;P1;durP2;ratioP2;P2;SDS_P1;SDS_P2;PMS_P1;PMS_P2;Temp;Humidity;BMP_temperature;BMP_pressure;BME280_temperature;BME280_humidity;BME280_pressure;Samples;Min_cycle;Max_cycle;Signal;HPM_P1;HPM_P2
2022/01/29 00:02:25;;;;;;;3.35;2.10;;;;;;;;;;5013742;28;20030;-80
2022/01/29 00:04:51;;;;;;;4.20;2.05;;;;;;;;;;5012931;28;20025;-80
2022/01/29 00:07:16;;;;;;;4.22;2.40;;;;;;;;;;5017432;28;20227;-80
2022/01/29 00:09:44;;;;;;;4.13;2.47;;;;;;;;;;5012093;28;20018;-81
2022/01/29 00:12:10;;;;;;;4.65;2.55;;;;;;;;;;5019232;28;20025;-81
2022/01/29 00:14:36;;;;;;;9.25;3.20;;;;;;;;;;5020859;28;20022;-82
2022/01/29 00:17:02;;;;;;;3.78;2.55;;;;;;;;;;5020805;28;20036;-81
2022/01/29 00:19:28;;;;;;;3.78;2.60;;;;;;;;;;5018423;28;20026;-79
2022/01/29 00:21:53;;;;;;;5.15;2.92;;;;;;;;;;5021148;28;20036;-82
2022/01/29 00:24:19;;;;;;;6.50;3.05;;;;;;;;;;5019875;28;20473;-81
2022/01/29 00:26:44;;;;;;;5.57;3.42;;;;;;;;;;5014240;28;20076;-81
2022/01/29 00:29:18;;;;;;;5.03;2.28;;;;;;;;;;5014579;28;20465;-81
2022/01/29 00:31:44;;;;;;;5.45;3.33;;;;;;;;;;5015785;28;20037;-80
2022/01/29 00:34:09;;;;;;;6.53;3.67;;;;;;;;;;5025336;28;20033;-83
2022/01/29 00:36:35;;;;;;;7.60;3.50;;;;;;;;;;5020554;28;20017;-82
2022/01/29 00:39:00;;;;;;;4.78;2.75;;;;;;;;;;5020679;28;20022;-80
2022/01/29 00:41:26;;;;;;;6.85;4.15;;;;;;;;;;5020949;28;20068;-80
2022/01/29 00:43:51;;;;;;;6.03;4.30;;;;;;;;;;5024897;28;20450;-79
2022/01/29 00:46:16;;;;;;;5.35;2.92;;;;;;;;;;5022905;28;20017;-81
2022/01/29 00:48:42;;;;;;;4.38;3.40;;;;;;;;;;5025054;28;20397;-79
2022/01/29 00:51:07;;;;;;;6.60;4.90;;;;;;;;;;5018975;28;20026;-79
2022/01/29 00:53:33;;;;;;;11.65;5.85;;;;;;;;;;5029001;28;20037;-80
2022/01/29 00:55:59;;;;;;;8.05;5.68;;;;;;;;;;5017448;28;20117;-81
2022/01/29 00:58:24;;;;;;;4.57;3.10;;;;;;;;;;5020469;28;20428;-81
2022/01/29 01:00:50;;;;;;;5.60;3.20;;;;;;;;;;5020569;28;20033;-81
2022/01/29 01:03:15;;;;;;;5.38;2.92;;;;;;;;;;5021357;28;20021;-81
2022/01/29 01:05:41;;;;;;;6.88;3.65;;;;;;;;;;5020928;28;20021;-80
2022/01/29 01:08:08;;;;;;;5.38;3.15;;;;;;;;;;5018659;28;20030;-80
2022/01/29 01:10:34;;;;;;;5.82;4.25;;;;;;;;;;5026276;28;20056;-80
2022/01/29 01:12:59;;;;;;;7.55;4.15;;;;;;;;;;5020131;28;20029;-82
2022/01/29 01:15:25;;;;;;;7.05;2.85;;;;;;;;;;5022980;28;20037;-80
2022/01/29 01:17:50;;;;;;;9.23;4.63;;;;;;;;;;5018480;28;20388;-80
2022/01/29 01:20:16;;;;;;;4.80;3.40;;;;;;;;;;5015690;28;20088;-81
2022/01/29 01:22:41;;;;;;;6.43;3.28;;;;;;;;;;5019479;28;20061;-82
2022/01/29 01:25:10;;;;;;;5.32;3.05;;;;;;;;;;5021838;28;20033;-81
2022/01/29 01:27:35;;;;;;;6.38;3.65;;;;;;;;;;5026718;28;20044;-82
2022/01/29 01:30:01;;;;;;;5.80;3.20;;;;;;;;;;5021135;28;20022;-83
2022/01/29 01:32:27;;;;;;;6.30;3.67;;;;;;;;;;5019568;28;20025;-82
2022/01/29 01:34:56;;;;;;;7.35;4.35;;;;;;;;;;5015088;28;20026;-80
2022/01/29 01:37:36;;;;;;;4.18;2.45;;;;;;;;;;5014201;28;20034;-81
2022/01/29 01:40:03;;;;;;;5.35;3.58;;;;;;;;;;5017572;28;20460;-82
2022/01/29 01:42:29;;;;;;;4.43;2.60;;;;;;;;;;5020934;28;20058;-82
2022/01/29 01:44:55;;;;;;;4.32;2.78;;;;;;;;;;5020131;28;20432;-84
2022/01/29 01:47:21;;;;;;;5.63;2.50;;;;;;;;;;5020309;28;20026;-81
2022/01/29 01:49:46;;;;;;;6.22;2.63;;;;;;;;;;5021212;28;20417;-82
2022/01/29 01:52:13;;;;;;;5.05;3.47;;;;;;;;;;5018144;28;20029;-82
2022/01/29 01:54:40;;;;;;;4.93;2.60;;;;;;;;;;5014010;28;20030;-82
2022/01/29 01:57:06;;;;;;;4.75;3.35;;;;;;;;;;5017086;28;20092;-79
2022/01/29 01:59:32;;;;;;;5.93;3.92;;;;;;;;;;5014094;28;20033;-81
2022/01/29 02:01:58;;;;;;;7.18;3.55;;;;;;;;;;5014103;28;20035;-80
2022/01/29 02:04:24;;;;;;;5.57;3.50;;;;;;;;;;5016947;28;20022;-82
2022/01/29 02:06:51;;;;;;;5.05;3.58;;;;;;;;;;5012521;28;20063;-81
2022/01/29 02:09:19;;;;;;;4.43;2.90;;;;;;;;;;5014455;28;20029;-80
2022/01/29 02:11:53;;;;;;;7.80;4.38;;;;;;;;;;5014117;28;20397;-81
2022/01/29 02:14:20;;;;;;;5.00;2.78;;;;;;;;;;5021487;28;20033;-81
2022/01/29 02:16:46;;;;;;;4.50;2.88;;;;;;;;;;5020172;28;20525;-81
2022/01/29 02:19:11;;;;;;;6.05;3.53;;;;;;;;;;5018123;28;20029;-80
2022/01/29 02:21:37;;;;;;;5.72;3.08;;;;;;;;;;5026262;28;20392;-81
2022/01/29 02:24:03;;;;;;;6.90;3.05;;;;;;;;;;5021985;28;20040;-81
2022/01/29 02:26:29;;;;;;;4.55;3.22;;;;;;;;;;5015654;28;20038;-80
2022/01/29 02:28:55;;;;;;;4.15;2.92;;;;;;;;;;5018953;28;20026;-81
2022/01/29 02:31:21;;;;;;;6.40;4.53;;;;;;;;;;5020997;28;20032;-81
2022/01/29 02:33:46;;;;;;;8.02;5.18;;;;;;;;;;5020381;28;20108;-82
2022/01/29 02:36:12;;;;;;;8.88;4.40;;;;;;;;;;5021088;28;20038;-81
2022/01/29 02:38:38;;;;;;;9.07;4.20;;;;;;;;;;5015552;28;20036;-81
2022/01/29 02:41:06;;;;;;;7.85;4.63;;;;;;;;;;5024405;28;20032;-79
2022/01/29 02:43:44;;;;;;;4.65;3.33;;;;;;;;;;5023032;28;20018;-81
2022/01/29 02:48:54;;;;;;;5.78;3.00;;;;;;;;;;5019753;28;20056;-81
2022/01/29 02:51:20;;;;;;;7.60;4.57;;;;;;;;;;5015841;28;20022;-81
2022/01/29 02:53:46;;;;;;;7.05;3.45;;;;;;;;;;5022317;28;20037;-79
2022/01/29 02:56:12;;;;;;;5.90;3.25;;;;;;;;;;5022813;28;20036;-82
2022/01/29 02:58:38;;;;;;;5.38;2.60;;;;;;;;;;5018823;28;20053;-79
2022/01/29 03:01:05;;;;;;;5.20;3.28;;;;;;;;;;5016198;28;20402;-78
2022/01/29 03:03:31;;;;;;;5.15;2.35;;;;;;;;;;5013002;28;20032;-79
2022/01/29 03:05:57;;;;;;;6.70;2.70;;;;;;;;;;5011291;28;20022;-79
2022/01/29 03:08:26;;;;;;;5.90;2.92;;;;;;;;;;5019850;28;20038;-81
2022/01/29 03:10:51;;;;;;;3.28;2.30;;;;;;;;;;5017301;28;20485;-78
2022/01/29 03:13:17;;;;;;;5.22;3.05;;;;;;;;;;5024977;28;20049;-78
2022/01/29 03:15:42;;;;;;;4.70;2.70;;;;;;;;;;5018317;28;20022;-79
2022/01/29 03:18:08;;;;;;;6.47;4.07;;;;;;;;;;5018072;28;20029;-79
2022/01/29 03:20:34;;;;;;;4.13;2.63;;;;;;;;;;5018029;28;20036;-79
2022/01/29 03:23:00;;;;;;;5.25;2.90;;;;;;;;;;5017936;28;20505;-80
2022/01/29 03:25:26;;;;;;;6.18;3.08;;;;;;;;;;5017922;28;20371;-81
2022/01/29 03:27:51;;;;;;;6.20;2.85;;;;;;;;;;5019560;28;20032;-78
2022/01/29 03:30:17;;;;;;;4.80;2.67;;;;;;;;;;5019756;28;20036;-79
2022/01/29 03:32:43;;;;;;;3.35;2.20;;;;;;;;;;5022124;28;20086;-81
2022/01/29 03:35:09;;;;;;;4.93;2.35;;;;;;;;;;5010560;28;20504;-81
2022/01/29 03:37:35;;;;;;;3.97;2.53;;;;;;;;;;5021106;28;20485;-81
2022/01/29 03:40:03;;;;;;;3.80;2.83;;;;;;;;;;5016915;28;20140;-78
2022/01/29 03:42:34;;;;;;;4.43;2.85;;;;;;;;;;5012262;28;20035;-81
2022/01/29 03:44:59;;;;;;;3.75;2.17;;;;;;;;;;5022894;28;20084;-80
2022/01/29 03:47:25;;;;;;;3.25;2.10;;;;;;;;;;5020156;28;20426;-82
2022/01/29 03:49:50;;;;;;;4.65;1.92;;;;;;;;;;5020132;28;20125;-80
2022/01/29 03:52:16;;;;;;;4.53;1.85;;;;;;;;;;5019732;28;20091;-80
2022/01/29 03:54:43;;;;;;;6.03;3.35;;;;;;;;;;5016253;28;20096;-79
2022/01/29 03:57:09;;;;;;;5.65;2.80;;;;;;;;;;5023300;28;20060;-79
2022/01/29 03:59:34;;;;;;;4.85;3.30;;;;;;;;;;5013469;28;20037;-81
2022/01/29 04:02:00;;;;;;;3.42;2.45;;;;;;;;;;5020395;28;20034;-80
2022/01/29 04:04:25;;;;;;;5.38;2.88;;;;;;;;;;5019317;28;20022;-81
2022/01/29 04:06:51;;;;;;;4.13;2.42;;;;;;;;;;5014863;28;20025;-83
2022/01/29 04:09:18;;;;;;;3.35;2.00;;;;;;;;;;5023804;28;20037;-81
2022/01/29 04:11:44;;;;;;;4.28;2.92;;;;;;;;;;5026428;28;20115;-80
2022/01/29 04:14:20;;;;;;;5.63;2.58;;;;;;;;;;5020606;28;20056;-80
2022/01/29 04:16:45;;;;;;;3.53;2.20;;;;;;;;;;5018939;28;20421;-81
2022/01/29 04:19:12;;;;;;;3.83;2.50;;;;;;;;;;5023387;28;20065;-81
2022/01/29 04:21:38;;;;;;;3.45;2.00;;;;;;;;;;5026646;28;20259;-80
2022/01/29 04:24:04;;;;;;;4.78;2.75;;;;;;;;;;5019174;28;20034;-80
2022/01/29 04:26:35;;;;;;;4.80;2.45;;;;;;;;;;5022838;28;20125;-80
2022/01/29 04:29:07;;;;;;;2.28;1.60;;;;;;;;;;5017686;28;20473;-79
2022/01/29 04:34:17;;;;;;;2.55;1.83;;;;;;;;;;5017957;28;20522;-80
2022/01/29 04:36:43;;;;;;;3.15;1.92;;;;;;;;;;5012819;28;20021;-78
2022/01/29 04:39:08;;;;;;;4.43;2.08;;;;;;;;;;5022490;28;20462;-79
2022/01/29 04:41:34;;;;;;;2.60;1.77;;;;;;;;;;5020454;28;20035;-79
2022/01/29 04:43:59;;;;;;;3.90;2.72;;;;;;;;;;5017522;28;20084;-80
2022/01/29 04:46:25;;;;;;;3.90;2.40;;;;;;;;;;5022866;28;20067;-81
2022/01/29 04:48:50;;;;;;;2.75;1.75;;;;;;;;;;5024518;28;20025;-81
2022/01/29 04:51:15;;;;;;;3.78;2.40;;;;;;;;;;5017450;28;20113;-81
2022/01/29 04:53:41;;;;;;;4.63;2.55;;;;;;;;;;5018454;28;20026;-80
2022/01/29 04:56:07;;;;;;;4.38;2.63;;;;;;;;;;5020928;28;20444;-81
2022/01/29 04:58:33;;;;;;;5.50;2.88;;;;;;;;;;5019375;28;20038;-79
2022/01/29 05:00:59;;;;;;;4.63;2.90;;;;;;;;;;5017293;28;20040;-79
2022/01/29 05:03:24;;;;;;;4.22;2.53;;;;;;;;;;5020856;28;20466;-79
2022/01/29 05:05:50;;;;;;;5.07;2.85;;;;;;;;;;5016486;28;20401;-80
2022/01/29 05:08:16;;;;;;;5.35;3.05;;;;;;;;;;5016725;28;20029;-81
2022/01/29 05:10:42;;;;;;;3.35;2.42;;;;;;;;;;5018196;28;20037;-80
2022/01/29 05:13:11;;;;;;;4.85;3.08;;;;;;;;;;5018706;28;20034;-80
2022/01/29 05:15:44;;;;;;;4.53;2.53;;;;;;;;;;5021141;28;20049;-81
2022/01/29 05:26:54;;;;;;;5.00;3.60;;;;;;;;;;5015048;28;20087;-80
2022/01/29 05:29:20;;;;;;;10.80;4.65;;;;;;;;;;5017330;28;20022;-80
2022/01/29 05:31:45;;;;;;;4.95;2.88;;;;;;;;;;5023038;28;20026;-80
2022/01/29 05:34:11;;;;;;;7.35;4.35;;;;;;;;;;5016942;28;20068;-82
2022/01/29 05:36:37;;;;;;;8.15;3.33;;;;;;;;;;5019073;28;20062;-81
2022/01/29 05:39:05;;;;;;;6.40;4.10;;;;;;;;;;5026842;28;20120;-79
2022/01/29 05:41:32;;;;;;;9.95;4.38;;;;;;;;;;5017158;28;20469;-79
2022/01/29 05:43:57;;;;;;;5.82;3.17;;;;;;;;;;5011120;28;20502;-81
2022/01/29 05:46:23;;;;;;;6.55;3.70;;;;;;;;;;5012439;28;20200;-80
2022/01/29 05:48:48;;;;;;;5.00;3.83;;;;;;;;;;5016262;28;20083;-79
2022/01/29 05:51:14;;;;;;;6.43;4.78;;;;;;;;;;5016345;28;20038;-81
2022/01/29 05:53:39;;;;;;;4.88;3.42;;;;;;;;;;5018588;28;20033;-80
2022/01/29 05:56:05;;;;;;;6.45;3.92;;;;;;;;;;5011230;28;20034;-79
2022/01/29 05:58:31;;;;;;;7.43;3.67;;;;;;;;;;5016222;28;20045;-80
2022/01/29 06:00:57;;;;;;;6.10;4.03;;;;;;;;;;5012878;28;20539;-81
2022/01/29 06:03:22;;;;;;;6.60;4.38;;;;;;;;;;5013154;28;20029;-80
2022/01/29 06:05:48;;;;;;;5.45;3.40;;;;;;;;;;5027535;28;20049;-79
2022/01/29 06:08:13;;;;;;;4.88;3.60;;;;;;;;;;5016081;28;20026;-81
2022/01/29 06:10:39;;;;;;;7.80;4.15;;;;;;;;;;5012073;28;20133;-78
2022/01/29 06:13:10;;;;;;;5.50;3.30;;;;;;;;;;5013050;28;20062;-78
2022/01/29 06:15:39;;;;;;;6.00;4.18;;;;;;;;;;5014345;28;20030;-80
2022/01/29 06:18:06;;;;;;;8.88;3.08;;;;;;;;;;5015716;28;20025;-80
2022/01/29 06:20:31;;;;;;;6.20;4.22;;;;;;;;;;5019360;28;20037;-80
2022/01/29 06:22:57;;;;;;;5.50;3.85;;;;;;;;;;5013663;28;20117;-81
2022/01/29 06:25:23;;;;;;;6.43;3.78;;;;;;;;;;5011931;28;20038;-80
2022/01/29 06:27:51;;;;;;;8.88;4.95;;;;;;;;;;5017056;28;20042;-80
2022/01/29 06:30:16;;;;;;;3.13;2.35;;;;;;;;;;5018305;28;20066;-81
2022/01/29 06:32:43;;;;;;;4.00;2.63;;;;;;;;;;5011575;28;20458;-80
2022/01/29 06:35:09;;;;;;;5.38;3.35;;;;;;;;;;5013667;28;20038;-78
2022/01/29 06:37:34;;;;;;;6.63;3.75;;;;;;;;;;5012498;28;20064;-81
2022/01/29 06:40:00;;;;;;;5.10;3.13;;;;;;;;;;5011667;28;20057;-80
2022/01/29 06:42:26;;;;;;;6.38;3.70;;;;;;;;;;5010775;28;20036;-82
2022/01/29 06:44:51;;;;;;;4.13;2.85;;;;;;;;;;5015231;28;20056;-80
2022/01/29 06:47:17;;;;;;;3.92;2.90;;;;;;;;;;5010970;28;20033;-79
2022/01/29 06:49:42;;;;;;;5.15;2.80;;;;;;;;;;5013429;28;20037;-80
2022/01/29 06:52:08;;;;;;;7.38;4.40;;;;;;;;;;5016930;28;20029;-79
2022/01/29 06:54:33;;;;;;;5.97;3.05;;;;;;;;;;5011833;28;20038;-80
2022/01/29 06:56:59;;;;;;;4.85;2.80;;;;;;;;;;5011734;28;20504;-79
2022/01/29 06:59:25;;;;;;;5.13;2.55;;;;;;;;;;5012193;28;20030;-80
2022/01/29 07:01:50;;;;;;;6.47;4.10;;;;;;;;;;5013312;28;20030;-79
2022/01/29 07:04:15;;;;;;;5.75;3.15;;;;;;;;;;5013293;28;20022;-78
2022/01/29 07:06:41;;;;;;;7.47;4.15;;;;;;;;;;5011278;28;20422;-79
2022/01/29 07:09:07;;;;;;;4.25;2.75;;;;;;;;;;5014156;28;20026;-80
2022/01/29 07:11:33;;;;;;;5.20;3.28;;;;;;;;;;5012979;28;20030;-78
2022/01/29 07:14:03;;;;;;;5.90;4.03;;;;;;;;;;5008016;28;20536;-78
2022/01/29 07:16:34;;;;;;;8.52;4.38;;;;;;;;;;5011976;28;20026;-79
2022/01/29 07:18:59;;;;;;;6.72;4.10;;;;;;;;;;5011052;28;20560;-80
2022/01/29 07:21:25;;;;;;;6.90;3.35;;;;;;;;;;5013804;28;20105;-78
2022/01/29 07:23:50;;;;;;;10.18;5.50;;;;;;;;;;5012010;28;20129;-80
2022/01/29 07:26:16;;;;;;;7.20;4.45;;;;;;;;;;5012812;28;20034;-80
2022/01/29 07:28:42;;;;;;;5.65;3.63;;;;;;;;;;5019806;28;20042;-82
2022/01/29 07:31:07;;;;;;;9.27;4.00;;;;;;;;;;5016886;28;20029;-79
2022/01/29 07:33:33;;;;;;;9.55;4.90;;;;;;;;;;5011083;28;20029;-81
2022/01/29 07:36:08;;;;;;;11.65;5.28;;;;;;;;;;5010106;28;20091;-81
2022/01/29 07:38:33;;;;;;;9.05;5.65;;;;;;;;;;5014415;28;20064;-80
2022/01/29 07:40:59;;;;;;;8.32;5.30;;;;;;;;;;5009410;28;20076;-79
2022/01/29 07:43:26;;;;;;;7.40;4.05;;;;;;;;;;5015682;28;20033;-80
2022/01/29 07:45:51;;;;;;;6.28;4.35;;;;;;;;;;5017780;28;20052;-77
2022/01/29 07:48:17;;;;;;;7.35;4.72;;;;;;;;;;5014586;28;20026;-79
2022/01/29 07:50:42;;;;;;;6.00;3.55;;;;;;;;;;5018993;28;20057;-78
2022/01/29 07:53:08;;;;;;;7.05;3.47;;;;;;;;;;5014510;28;20048;-78
2022/01/29 07:55:33;;;;;;;5.75;4.00;;;;;;;;;;5025237;28;20385;-77
2022/01/29 07:58:01;;;;;;;7.70;4.00;;;;;;;;;;5014235;28;20100;-79
2022/01/29 08:00:27;;;;;;;6.13;3.92;;;;;;;;;;5016880;28;20026;-77
2022/01/29 08:02:55;;;;;;;8.98;5.32;;;;;;;;;;5015621;28;20110;-77
2022/01/29 08:05:20;;;;;;;7.43;4.63;;;;;;;;;;5016191;28;20029;-78
2022/01/29 08:07:46;;;;;;;7.20;4.10;;;;;;;;;;5015406;28;20026;-79
2022/01/29 08:10:12;;;;;;;13.35;5.18;;;;;;;;;;5011801;28;20125;-79
2022/01/29 08:12:37;;;;;;;7.88;3.83;;;;;;;;;;5013385;28;20038;-80
2022/01/29 08:15:04;;;;;;;6.30;5.47;;;;;;;;;;5012985;28;20045;-82
2022/01/29 08:17:30;;;;;;;9.32;4.90;;;;;;;;;;5014468;28;20022;-80
2022/01/29 08:19:57;;;;;;;11.18;5.05;;;;;;;;;;5016452;28;20040;-79
2022/01/29 08:22:23;;;;;;;7.55;4.55;;;;;;;;;;5012943;28;20036;-79
2022/01/29 08:24:49;;;;;;;7.07;4.35;;;;;;;;;;5013412;28;20030;-79
2022/01/29 08:27:15;;;;;;;6.93;4.65;;;;;;;;;;5012723;28;20096;-77
2022/01/29 08:29:40;;;;;;;11.32;5.30;;;;;;;;;;5014453;28;20025;-79
2022/01/29 08:32:06;;;;;;;6.93;4.57;;;;;;;;;;5014963;28;20453;-79
2022/01/29 08:34:31;;;;;;;7.50;5.57;;;;;;;;;;5016462;28;20034;-79
2022/01/29 08:37:04;;;;;;;9.18;5.60;;;;;;;;;;5015447;28;20034;-79
2022/01/29 08:39:30;;;;;;;7.13;4.28;;;;;;;;;;5012759;28;20438;-79
2022/01/29 08:41:56;;;;;;;11.43;5.57;;;;;;;;;;5027048;28;20030;-78
2022/01/29 08:44:22;;;;;;;8.00;4.90;;;;;;;;;;5021340;28;20036;-77
2022/01/29 08:46:47;;;;;;;6.72;5.22;;;;;;;;;;5018696;28;20350;-78
2022/01/29 08:49:13;;;;;;;8.65;5.45;;;;;;;;;;5014659;28;20057;-80
2022/01/29 08:51:39;;;;;;;10.43;5.38;;;;;;;;;;5011245;28;20830;-80
2022/01/29 08:54:04;;;;;;;10.75;5.50;;;;;;;;;;5013533;28;20433;-79
2022/01/29 08:56:30;;;;;;;8.65;5.38;;;;;;;;;;5012070;28;20030;-78
2022/01/29 08:58:55;;;;;;;12.05;5.97;;;;;;;;;;5016689;28;20496;-79
2022/01/29 09:01:21;;;;;;;8.65;5.10;;;;;;;;;;5019660;28;20122;-79
2022/01/29 09:03:46;;;;;;;8.88;5.18;;;;;;;;;;5016014;28;20072;-80
2022/01/29 09:06:12;;;;;;;11.65;6.07;;;;;;;;;;5011264;28;20026;-78
2022/01/29 09:08:39;;;;;;;9.85;5.68;;;;;;;;;;5015291;28;20038;-81
2022/01/29 09:11:05;;;;;;;13.35;5.60;;;;;;;;;;5010200;28;20036;-81
2022/01/29 09:13:31;;;;;;;8.05;4.65;;;;;;;;;;5012605;28;20085;-80
2022/01/29 09:15:58;;;;;;;8.15;5.68;;;;;;;;;;5012752;28;20030;-78
2022/01/29 09:18:24;;;;;;;6.05;4.57;;;;;;;;;;5013851;28;20069;-78
2022/01/29 09:20:50;;;;;;;8.77;5.38;;;;;;;;;;5014554;28;20022;-77
2022/01/29 09:23:15;;;;;;;12.13;6.70;;;;;;;;;;5011091;28;20453;-78
2022/01/29 09:25:41;;;;;;;9.10;6.75;;;;;;;;;;5017750;28;20618;-79
2022/01/29 09:28:08;;;;;;;7.18;4.63;;;;;;;;;;5033850;28;20030;-78
2022/01/29 09:30:34;;;;;;;9.48;5.88;;;;;;;;;;5012212;28;20071;-78
2022/01/29 09:33:00;;;;;;;14.27;8.80;;;;;;;;;;5013982;28;20029;-80
2022/01/29 09:35:26;;;;;;;25.10;11.35;;;;;;;;;;5011146;28;20037;-79
2022/01/29 09:37:53;;;;;;;17.83;9.13;;;;;;;;;;5013405;28;20026;-79
2022/01/29 09:40:19;;;;;;;20.98;9.68;;;;;;;;;;5010931;28;20033;-79
2022/01/29 09:42:46;;;;;;;23.52;9.93;;;;;;;;;;5011959;28;20018;-79
2022/01/29 09:45:17;;;;;;;27.08;12.55;;;;;;;;;;5010568;28;20116;-78
2022/01/29 09:47:45;;;;;;;13.65;6.25;;;;;;;;;;5013968;28;20036;-78
2022/01/29 09:50:13;;;;;;;13.23;7.25;;;;;;;;;;5012790;28;20204;-78
2022/01/29 09:52:39;;;;;;;15.38;8.30;;;;;;;;;;5024592;28;20026;-80
2022/01/29 09:55:06;;;;;;;15.48;8.07;;;;;;;;;;5010299;28;20022;-80
2022/01/29 09:57:32;;;;;;;9.55;5.78;;;;;;;;;;5011322;28;20041;-79
2022/01/29 09:59:57;;;;;;;10.38;6.35;;;;;;;;;;5012069;28;20033;-80
2022/01/29 10:02:23;;;;;;;9.07;5.72;;;;;;;;;;5009477;28;20060;-77
2022/01/29 10:04:54;;;;;;;10.88;6.65;;;;;;;;;;5007111;28;20497;-79
2022/01/29 10:07:24;;;;;;;8.55;4.22;;;;;;;;;;5011805;28;20029;-77
2022/01/29 10:09:50;;;;;;;8.05;4.07;;;;;;;;;;5012013;28;20488;-78
2022/01/29 10:12:18;;;;;;;11.63;6.57;;;;;;;;;;5010529;28;20026;-79
2022/01/29 10:14:58;;;;;;;12.70;7.20;;;;;;;;;;5011810;28;20022;-77
2022/01/29 10:17:50;;;;;;;10.35;5.53;;;;;;;;;;5010813;28;20036;-78
2022/01/29 10:20:24;;;;;;;10.23;5.45;;;;;;;;;;5013473;28;20052;-79
2022/01/29 10:22:55;;;;;;;7.97;4.63;;;;;;;;;;5014364;28;20081;-79
2022/01/29 10:25:32;;;;;;;10.80;5.88;;;;;;;;;;5011252;28;20386;-78
2022/01/29 10:28:20;;;;;;;11.13;6.78;;;;;;;;;;5010819;28;20030;-79
2022/01/29 10:30:49;;;;;;;9.65;5.28;;;;;;;;;;5011607;28;20034;-78
2022/01/29 10:33:18;;;;;;;10.30;6.72;;;;;;;;;;5014426;28;20036;-78
2022/01/29 10:35:48;;;;;;;14.00;7.07;;;;;;;;;;5011014;28;20513;-76
2022/01/29 10:38:17;;;;;;;;;;;;;;;;;;5008009;28;20057;-78
2022/01/29 10:40:43;;;;;;;15.15;7.65;;;;;;;;;;5017992;28;19913;-79
2022/01/29 10:43:09;;;;;;;13.18;7.72;;;;;;;;;;5009666;28;20033;-80
2022/01/29 10:45:36;;;;;;;11.90;7.32;;;;;;;;;;5010527;28;20029;-77
2022/01/29 10:48:05;;;;;;;8.98;5.38;;;;;;;;;;5012468;28;20065;-77
2022/01/29 10:50:32;;;;;;;15.52;7.97;;;;;;;;;;5010873;28;20029;-78
2022/01/29 10:53:18;;;;;;;15.63;7.70;;;;;;;;;;5008897;28;20798;-77
2022/01/29 10:56:00;;;;;;;18.88;9.15;;;;;;;;;;5019010;28;20087;-81
2022/01/29 10:58:26;;;;;;;18.75;8.75;;;;;;;;;;5011667;28;20389;-79
2022/01/29 11:01:14;;;;;;;16.35;8.02;;;;;;;;;;5010912;28;20036;-80
2022/01/29 11:03:40;;;;;;;18.40;10.00;;;;;;;;;;5007086;28;20029;-79
2022/01/29 11:06:10;;;;;;;14.13;7.50;;;;;;;;;;5020064;28;20385;-78
2022/01/29 11:08:36;;;;;;;;;;;;;;;;;;5010161;28;20072;-77
2022/01/29 11:11:03;;;;;;;13.50;6.68;;;;;;;;;;5009339;28;19914;-79
2022/01/29 11:13:30;;;;;;;12.27;7.85;;;;;;;;;;5012027;28;20034;-78
2022/01/29 11:15:57;;;;;;;11.40;6.97;;;;;;;;;;5010876;28;20065;-78
2022/01/29 11:18:26;;;;;;;8.05;5.75;;;;;;;;;;5011046;28;20069;-78
2022/01/29 11:20:52;;;;;;;11.90;6.88;;;;;;;;;;5005647;28;20037;-78
2022/01/29 11:23:20;;;;;;;15.48;8.75;;;;;;;;;;5012590;28;20382;-80
2022/01/29 11:25:45;;;;;;;14.55;7.63;;;;;;;;;;5008869;28;20040;-78
2022/01/29 11:28:19;;;;;;;14.90;7.80;;;;;;;;;;5011012;28;20026;-78
2022/01/29 11:31:04;;;;;;;13.68;7.25;;;;;;;;;;5010940;28;20032;-77
2022/01/29 11:33:30;;;;;;;15.95;8.35;;;;;;;;;;5010821;28;20045;-78
2022/01/29 11:35:56;;;;;;;20.45;9.82;;;;;;;;;;5010444;28;20030;-78
2022/01/29 11:38:29;;;;;;;18.15;9.20;;;;;;;;;;5010994;28;20025;-79
2022/01/29 11:41:00;;;;;;;22.95;11.80;;;;;;;;;;5010217;28;20030;-78
2022/01/29 11:43:30;;;;;;;13.77;8.60;;;;;;;;;;5010912;28;20105;-80
2022/01/29 11:46:10;;;;;;;14.35;9.18;;;;;;;;;;5010477;28;20034;-77
2022/01/29 11:48:41;;;;;;;12.00;7.05;;;;;;;;;;5010120;28;20180;-78
2022/01/29 11:51:09;;;;;;;11.32;7.90;;;;;;;;;;5008750;28;20061;-77
2022/01/29 11:53:43;;;;;;;9.63;5.75;;;;;;;;;;5010684;28;20450;-78
2022/01/29 11:56:27;;;;;;;8.77;6.25;;;;;;;;;;5010126;28;20033;-78
2022/01/29 11:59:17;;;;;;;9.75;5.95;;;;;;;;;;5008938;28;20373;-79
2022/01/29 12:01:44;;;;;;;23.10;10.50;;;;;;;;;;5010658;28;20108;-78
2022/01/29 12:04:10;;;;;;;33.05;16.08;;;;;;;;;;5010760;28;20645;-79
2022/01/29 12:06:41;;;;;;;17.85;9.43;;;;;;;;;;5010925;28;20030;-78
2022/01/29 12:09:19;;;;;;;14.35;7.30;;;;;;;;;;5012502;28;20483;-79
2022/01/29 12:12:16;;;;;;;11.13;6.43;;;;;;;;;;5005653;28;20037;-78
2022/01/29 12:14:43;;;;;;;14.20;8.27;;;;;;;;;;5009903;28;20028;-77
2022/01/29 12:17:09;;;;;;;11.88;8.05;;;;;;;;;;5010369;28;20033;-78
2022/01/29 12:19:34;;;;;;;14.65;9.57;;;;;;;;;;5009933;28;20026;-80
2022/01/29 12:22:00;;;;;;;17.15;9.43;;;;;;;;;;5010723;28;20040;-78
2022/01/29 12:24:26;;;;;;;13.48;8.07;;;;;;;;;;5010251;28;20050;-77
2022/01/29 12:26:56;;;;;;;12.93;8.02;;;;;;;;;;5009143;28;20027;-77
2022/01/29 12:29:22;;;;;;;12.85;9.02;;;;;;;;;;5012751;28;20029;-77
2022/01/29 12:31:52;;;;;;;12.63;7.05;;;;;;;;;;5013928;28;20087;-78
2022/01/29 12:34:20;;;;;;;15.35;9.00;;;;;;;;;;5014349;28;20103;-78
2022/01/29 12:36:49;;;;;;;15.68;9.35;;;;;;;;;;5013397;28;20442;-78
2022/01/29 12:39:22;;;;;;;12.93;6.63;;;;;;;;;;5013625;28;20022;-79
2022/01/29 12:42:05;;;;;;;14.80;7.85;;;;;;;;;;5013407;28;20501;-77
2022/01/29 12:44:31;;;;;;;12.18;7.40;;;;;;;;;;5017767;28;20026;-78
2022/01/29 12:46:56;;;;;;;11.90;7.57;;;;;;;;;;5013818;28;20048;-77
2022/01/29 12:49:22;;;;;;;13.32;6.78;;;;;;;;;;5013988;28;20065;-79
2022/01/29 12:51:53;;;;;;;13.32;6.85;;;;;;;;;;5011664;28;20040;-79
2022/01/29 12:54:19;;;;;;;15.65;8.32;;;;;;;;;;5015453;28;20033;-78
2022/01/29 12:56:45;;;;;;;10.98;5.93;;;;;;;;;;5011155;28;20042;-79
2022/01/29 12:59:13;;;;;;;14.55;7.90;;;;;;;;;;5012907;28;20117;-79
2022/01/29 13:01:40;;;;;;;14.65;8.00;;;;;;;;;;5012087;28;20033;-78
2022/01/29 13:04:13;;;;;;;15.30;6.97;;;;;;;;;;5011876;28;20061;-79
2022/01/29 13:06:39;;;;;;;13.50;6.05;;;;;;;;;;5010986;28;20036;-78
2022/01/29 13:09:19;;;;;;;18.88;8.15;;;;;;;;;;5021029;28;20036;-79
2022/01/29 13:11:46;;;;;;;12.40;7.40;;;;;;;;;;5011425;28;20133;-78
2022/01/29 13:14:19;;;;;;;13.45;6.95;;;;;;;;;;5012955;28;20026;-78
2022/01/29 13:16:47;;;;;;;15.00;7.97;;;;;;;;;;5013227;28;20116;-78
2022/01/29 13:19:15;;;;;;;15.82;8.48;;;;;;;;;;5013229;28;20026;-78
2022/01/29 13:21:41;;;;;;;19.13;10.10;;;;;;;;;;5011604;28;20021;-78
2022/01/29 13:24:28;;;;;;;16.00;8.32;;;;;;;;;;5010752;28;20393;-77
2022/01/29 13:27:19;;;;;;;13.52;7.28;;;;;;;;;;5013987;28;20022;-78
2022/01/29 13:29:53;;;;;;;13.70;6.38;;;;;;;;;;5003595;28;20053;-79
2022/01/29 13:32:39;;;;;;;9.75;6.97;;;;;;;;;;5015506;28;20034;-78
2022/01/29 13:35:26;;;;;;;13.95;6.88;;;;;;;;;;5015594;28;20113;-79
2022/01/29 13:37:58;;;;;;;19.30;11.10;;;;;;;;;;5015409;28;20022;-82
2022/01/29 13:40:40;;;;;;;30.75;14.57;;;;;;;;;;5018814;28;20485;-78
2022/01/29 13:43:08;;;;;;;22.00;12.40;;;;;;;;;;5020781;28;20033;-79
2022/01/29 13:46:17;;;;;;;17.08;8.73;;;;;;;;;;5016037;28;20120;-78
2022/01/29 13:48:44;;;;;;;14.15;6.60;;;;;;;;;;5007531;28;20049;-80
2022/01/29 13:51:12;;;;;;;19.60;11.00;;;;;;;;;;5012913;28;20389;-78
2022/01/29 13:53:46;;;;;;;22.05;10.85;;;;;;;;;;5012081;28;20038;-79
2022/01/29 13:56:19;;;;;;;19.67;10.60;;;;;;;;;;5009673;28;20037;-80
2022/01/29 13:58:51;;;;;;;22.13;12.10;;;;;;;;;;5014357;28;20034;-80
2022/01/29 14:01:46;;;;;;;30.15;13.70;;;;;;;;;;5010513;28;20432;-79
2022/01/29 14:04:34;;;;;;;15.00;8.88;;;;;;;;;;5019552;28;20024;-80
2022/01/29 14:07:01;;;;;;;15.60;8.02;;;;;;;;;;5015242;28;20029;-79
2022/01/29 14:09:36;;;;;;;19.33;10.60;;;;;;;;;;5015096;28;20413;-79
2022/01/29 14:12:07;;;;;;;13.75;7.47;;;;;;;;;;5011934;28;20026;-77
2022/01/29 14:14:48;;;;;;;12.23;8.13;;;;;;;;;;5011751;28;20530;-78
2022/01/29 14:17:25;;;;;;;16.60;9.95;;;;;;;;;;5010897;28;20084;-78
2022/01/29 14:20:05;;;;;;;15.20;8.90;;;;;;;;;;5012509;28;20049;-79
2022/01/29 14:22:33;;;;;;;23.13;9.07;;;;;;;;;;5015220;28;20044;-78
2022/01/29 14:25:01;;;;;;;10.35;6.82;;;;;;;;;;5014974;28;20393;-79
2022/01/29 14:27:28;;;;;;;15.00;9.52;;;;;;;;;;5010167;28;20390;-79
2022/01/29 14:29:54;;;;;;;16.60;8.48;;;;;;;;;;5015324;28;20543;-79
2022/01/29 14:32:21;;;;;;;12.77;8.38;;;;;;;;;;5011033;28;20108;-78
2022/01/29 14:34:46;;;;;;;14.27;8.60;;;;;;;;;;5011489;28;20029;-81
2022/01/29 14:37:12;;;;;;;17.52;7.68;;;;;;;;;;5011437;28;20032;-78
2022/01/29 14:39:40;;;;;;;12.68;7.13;;;;;;;;;;5015405;28;20034;-77
2022/01/29 14:42:08;;;;;;;9.43;6.20;;;;;;;;;;5011298;28;20022;-78
2022/01/29 14:44:37;;;;;;;12.23;7.63;;;;;;;;;;5011500;28;20079;-78
2022/01/29 14:47:05;;;;;;;12.35;7.75;;;;;;;;;;5017461;28;20124;-80
2022/01/29 14:49:30;;;;;;;12.82;7.63;;;;;;;;;;5012115;28;20034;-78
2022/01/29 14:51:58;;;;;;;13.27;8.02;;;;;;;;;;5014792;28;20101;-79
2022/01/29 14:54:23;;;;;;;43.55;15.60;;;;;;;;;;5017487;28;20037;-79
2022/01/29 14:56:49;;;;;;;19.90;10.23;;;;;;;;;;5016355;28;20034;-79
2022/01/29 14:59:15;;;;;;;30.58;13.27;;;;;;;;;;5011133;28;20053;-79